Contact Us:
Email: info@sawbill.com
Phone: (218)663-7150
Fax: (218)663-7980
Mail: 4620 Sawbill Trail
Box 2129
Tofte, MN 55615


Powered by
Movable Type 3.15
 
Sawbill Weather History Archives: January 2010
Current Sawbill Weather History | « December 2009 | February 2010 »


Date

High
Temperature

Low
Temperature

Barometric
Pressure

Relative
Humidity 7AM

9 AM
Temperature

Moisture

Snow

1/31/10 5 -7 30.33 81% -7 0
1/30/10 13 -3 30.27 81% -1 Trace Trace
1/29/10 10 -9 30.33 81% 0 0
1/28/10 0 -16 30.53 81% -9 0
1/27/10 2 -16 30.43 71% -16 0
1/26/10 5 -7 30.00 81% -7 Trace Trace
1/25/10 31 -4 29.94 81% -3 .18" 2"
1/24/10 34 31 29.23 98% 31 .54" 5.5"
1/23/10 33 28 29.59 98% 33 .38" 2.5"
1/22/10 32 27 30.03 90% 28 0
1/21/10 30 23 30.21 85% 27 0
1/20/10 24 19 30.27 91% 23 0
1/19/10 25 15 30.24 92% 20 Trace Trace
1/18/10 24 16 30.18 76% 17 Trace Trace
1/17/10 32 23 30.09 75% 23 0
1/16/10 33 22 29.97 94% 26 0
1/15/10 33 12 30.06 91% 23 0
1/14/10 24 13 30.30 78% 13 0
1/13/10 34 10 29.92 95% 22 Trace Trace
1/12/10 25 10 30.06 76% 11 0
1/11/10 16 0 30.42 89% 16 0
1/10/10 14 11 30.42 54% 11 .03" .5"
1/9/10 13 -17 30.12 74% 11 0
1/8/10 5 -18 30.56 74% -17 0
1/7/10 10 -11 30.56 74% -10 .02" .5"
1/6/10 12 -7 30.42 74% 0 0
1/5/10 10 -8 30.42 74% -6 0
1/4/10 5 -12 30.50 74% -8 0
1/3/10 2 -20 30.59 74% -12 0
1/2/10 -7 -23 30.68 74% -20 0
1/1/10 -3 -20 30.59 74% -20 0
 


Home I Trip Planning I Rentals and Outfitting I Reservations I Campgrounds I Sawbill Store I Sawbill News I Contact

© 1997 - 2017, Sawbill Canoe Outfitters, Inc. I Privacy Policy